Time;durP1;ratioP1;P1;durP2;ratioP2;P2;SDS_P1;SDS_P2;PMS_P1;PMS_P2;Temp;Humidity;BMP_temperature;BMP_pressure;BME280_temperature;BME280_humidity;BME280_pressure;Samples;Min_cycle;Max_cycle;Signal;HPM_P1;HPM_P2
2021/08/13 00:00:43;;;;;;;;;9.75;9.00;;;;;24.05;61.20;101804.81;5072760;28;46364;-69
2021/08/13 00:03:09;;;;;;;;;12.75;9.00;;;;;24.03;61.55;101808.63;5074293;28;45323;-69
2021/08/13 00:05:34;;;;;;;;;9.25;8.00;;;;;23.99;61.63;101820.59;5074314;28;45579;-69
2021/08/13 00:07:59;;;;;;;;;13.00;10.00;;;;;23.95;62.13;101809.22;5074577;27;45428;-69
2021/08/13 00:10:25;;;;;;;;;10.00;9.00;;;;;23.91;62.25;101818.53;5073977;27;48203;-69
2021/08/13 00:12:50;;;;;;;;;11.00;9.75;;;;;23.85;61.96;101813.66;5074778;28;45358;-69
2021/08/13 00:15:15;;;;;;;;;9.75;8.00;;;;;23.85;62.27;101819.88;5073729;28;55316;-69
2021/08/13 00:17:40;;;;;;;;;9.00;9.00;;;;;23.81;61.98;101806.84;5073062;27;45237;-69
2021/08/13 00:20:06;;;;;;;;;9.00;7.00;;;;;23.75;61.90;101813.53;5074137;27;45426;-69
2021/08/13 00:22:32;;;;;;;;;13.00;10.25;;;;;23.71;62.06;101808.59;5073582;27;45668;-69
2021/08/13 00:24:57;;;;;;;;;9.00;9.00;;;;;23.68;61.92;101809.66;5075647;27;45299;-69
2021/08/13 00:27:22;;;;;;;;;10.25;9.00;;;;;23.61;61.38;101808.44;5072433;28;48571;-69
2021/08/13 00:29:48;;;;;;;;;8.25;8.25;;;;;23.56;61.34;101810.66;5073377;28;57440;-70
2021/08/13 00:32:13;;;;;;;;;10.25;10.00;;;;;23.51;61.75;101818.22;5073808;27;45465;-69
2021/08/13 00:34:39;;;;;;;;;12.25;9.75;;;;;23.48;61.53;101826.50;5074023;27;45378;-69
2021/08/13 00:37:04;;;;;;;;;12.50;7.75;;;;;23.43;61.49;101818.81;5076001;27;45314;-69
2021/08/13 00:39:30;;;;;;;;;8.25;8.25;;;;;23.37;61.22;101819.31;5072242;27;45522;-69
2021/08/13 00:41:55;;;;;;;;;18.75;9.25;;;;;23.31;61.50;101815.28;5073415;28;45396;-69
2021/08/13 00:44:20;;;;;;;;;7.00;7.00;;;;;23.31;61.29;101825.16;5074574;28;45361;-69
2021/08/13 00:46:46;;;;;;;;;11.25;9.75;;;;;23.23;61.12;101817.75;5074024;27;45346;-69
2021/08/13 00:49:11;;;;;;;;;12.00;10.25;;;;;23.21;61.24;101824.19;5074739;28;48051;-69
2021/08/13 00:51:36;;;;;;;;;14.00;10.00;;;;;23.16;61.15;101829.91;5071140;27;45457;-69
2021/08/13 00:54:02;;;;;;;;;15.75;9.50;;;;;23.14;61.20;101824.69;5072078;27;45617;-69
2021/08/13 00:56:27;;;;;;;;;11.75;11.75;;;;;23.11;61.29;101829.41;5070956;27;45469;-69
2021/08/13 00:58:53;;;;;;;;;9.00;7.25;;;;;23.08;61.15;101832.34;5072112;27;49404;-69
2021/08/13 01:01:19;;;;;;;;;8.50;8.50;;;;;23.03;61.58;101831.88;5072218;28;45462;-69
2021/08/13 01:03:46;;;;;;;;;13.50;9.75;;;;;22.97;61.21;101833.19;5072223;28;45444;-69
2021/08/13 01:06:13;;;;;;;;;10.75;8.50;;;;;22.94;61.44;101841.47;5071550;27;45424;-69
2021/08/13 01:08:39;;;;;;;;;11.75;8.25;;;;;22.95;61.15;101850.34;5072167;27;45485;-69
2021/08/13 01:11:17;;;;;;;;;7.75;7.00;;;;;22.88;61.21;101836.59;5072762;27;45420;-69
2021/08/13 01:13:58;;;;;;;;;9.25;8.00;;;;;22.83;60.92;101841.41;5072196;27;45586;-69
2021/08/13 01:16:26;;;;;;;;;11.50;8.75;;;;;22.82;61.11;101842.41;5070031;28;45395;-69
2021/08/13 01:19:00;;;;;;;;;8.25;8.25;;;;;22.73;61.00;101833.22;5072414;28;46451;-70
2021/08/13 01:21:40;;;;;;;;;13.50;9.25;;;;;22.74;61.01;101842.13;5067013;28;45692;-69
2021/08/13 01:24:14;;;;;;;;;12.50;10.00;;;;;22.71;61.52;101834.28;5071759;27;45365;-69
2021/08/13 01:26:48;;;;;;;;;6.75;6.75;;;;;22.71;61.40;101839.66;5072116;27;47875;-69
2021/08/13 01:29:22;;;;;;;;;9.00;9.00;;;;;22.65;61.56;101844.50;5071475;27;46398;-69
2021/08/13 01:32:12;;;;;;;;;11.00;10.00;;;;;22.63;61.84;101843.78;5062521;28;45808;-69
2021/08/13 01:35:01;;;;;;;;;8.75;8.75;;;;;22.56;62.51;101831.00;5071225;27;45671;-69
2021/08/13 01:37:30;;;;;;;;;8.50;8.00;;;;;22.55;62.00;101827.47;5068977;28;45488;-69
2021/08/13 01:39:59;;;;;;;;;11.25;9.75;;;;;22.51;62.04;101825.97;5073232;28;45504;-69
2021/08/13 01:42:26;;;;;;;;;8.50;7.25;;;;;22.47;61.46;101819.13;5071959;27;45574;-69
2021/08/13 01:44:52;;;;;;;;;9.25;7.25;;;;;22.45;61.80;101821.09;5067298;28;45532;-69
2021/08/13 01:47:17;;;;;;;;;12.25;8.75;;;;;22.38;61.87;101817.16;5071591;27;45365;-69
2021/08/13 01:49:44;;;;;;;;;14.00;10.00;;;;;22.39;61.67;101827.78;5030736;27;1150856;-69
2021/08/13 01:52:10;;;;;;;;;6.50;6.00;;;;;22.39;62.17;101830.44;5074778;27;45654;-69
2021/08/13 01:54:37;;;;;;;;;9.75;8.25;;;;;22.36;62.03;101828.00;5073435;28;45367;-69
2021/08/13 01:57:03;;;;;;;;;6.00;6.00;;;;;22.33;61.50;101825.53;5071633;28;45360;-69
2021/08/13 01:59:33;;;;;;;;;11.50;8.00;;;;;22.28;61.78;101830.38;5071376;28;46049;-69
2021/08/13 02:01:59;;;;;;;;;8.25;7.25;;;;;22.27;62.06;101827.81;5072705;28;45409;-69
2021/08/13 02:04:24;;;;;;;;;10.25;8.75;;;;;22.23;62.27;101831.69;5072374;28;45371;-69
2021/08/13 02:06:50;;;;;;;;;11.00;8.25;;;;;22.19;62.06;101824.88;5073028;27;56965;-69
2021/08/13 02:09:18;;;;;;;;;10.00;7.75;;;;;22.18;62.04;101837.38;5072922;27;46631;-69
2021/08/13 02:11:44;;;;;;;;;9.75;8.00;;;;;22.13;61.71;101826.16;5072579;27;45470;-69
2021/08/13 02:14:10;;;;;;;;;10.00;10.00;;;;;22.09;61.85;101835.38;5071532;27;45595;-69
2021/08/13 02:16:37;;;;;;;;;6.75;5.00;;;;;22.08;62.21;101841.69;5072722;27;45410;-69
2021/08/13 02:19:13;;;;;;;;;9.50;8.00;;;;;22.08;61.85;101839.00;5074234;27;45523;-69
2021/08/13 02:21:41;;;;;;;;;11.75;8.25;;;;;22.07;62.34;101843.50;5072159;28;45469;-69
2021/08/13 02:24:06;;;;;;;;;12.00;8.25;;;;;22.01;61.76;101840.44;5072520;27;45304;-69
2021/08/13 02:26:32;;;;;;;;;10.50;7.50;;;;;22.02;62.44;101842.13;5072788;28;45459;-69
2021/08/13 02:28:59;;;;;;;;;9.75;9.00;;;;;21.99;62.24;101845.06;5072201;28;45646;-69
2021/08/13 02:31:25;;;;;;;;;9.75;9.75;;;;;21.96;61.97;101827.38;5072937;27;45753;-69
2021/08/13 02:33:50;;;;;;;;;8.00;8.00;;;;;21.94;61.42;101836.50;5088849;27;48843;-69
2021/08/13 02:36:18;;;;;;;;;8.75;6.75;;;;;21.89;61.94;101823.47;5071060;28;45341;-69
2021/08/13 02:38:53;;;;;;;;;8.00;7.00;;;;;21.90;62.08;101833.19;5072302;27;46655;-69
2021/08/13 02:41:20;;;;;;;;;13.50;9.75;;;;;21.84;62.63;101833.66;5071898;27;45732;-69
2021/08/13 02:43:56;;;;;;;;;6.50;6.50;;;;;21.85;62.80;101841.56;5072234;28;45412;-69
2021/08/13 02:46:26;;;;;;;;;7.00;7.00;;;;;21.81;62.21;101842.75;5070057;28;45431;-69
2021/08/13 02:48:54;;;;;;;;;10.75;7.25;;;;;21.77;62.35;101837.72;5090808;27;47583;-69
2021/08/13 02:51:23;;;;;;;;;7.50;6.75;;;;;21.75;62.33;101831.63;5075388;27;46869;-69
2021/08/13 02:53:54;;;;;;;;;7.25;7.25;;;;;21.74;62.57;101827.25;5074251;27;45473;-69
2021/08/13 02:56:19;;;;;;;;;9.00;7.25;;;;;21.74;62.75;101837.97;5076054;27;45357;-69
2021/08/13 02:58:49;;;;;;;;;8.00;5.00;;;;;21.72;62.99;101847.94;5075435;27;46174;-69
2021/08/13 03:01:17;;;;;;;;;8.00;6.25;;;;;21.69;63.13;101843.63;5076753;27;45779;-69
2021/08/13 03:03:44;;;;;;;;;10.00;6.25;;;;;21.66;62.99;101835.81;5075284;27;45325;-69
2021/08/13 03:06:12;;;;;;;;;6.75;6.00;;;;;21.65;63.09;101833.25;5075397;27;45389;-70
2021/08/13 03:08:40;;;;;;;;;8.00;7.00;;;;;21.62;63.60;101829.84;5075352;27;46295;-69
2021/08/13 03:11:05;;;;;;;;;8.00;8.00;;;;;21.58;63.54;101831.03;5075056;27;45260;-69
2021/08/13 03:13:32;;;;;;;;;7.50;7.00;;;;;21.52;63.72;101836.84;5076290;28;45390;-69
2021/08/13 03:15:59;;;;;;;;;8.00;5.75;;;;;21.46;63.89;101839.94;5074205;27;45464;-69
2021/08/13 03:18:27;;;;;;;;;6.00;6.00;;;;;21.45;63.76;101854.25;5075388;27;46770;-69
2021/08/13 03:20:53;;;;;;;;;10.00;6.00;;;;;21.43;63.93;101855.34;5070398;28;45621;-70
2021/08/13 03:23:19;;;;;;;;;6.50;6.50;;;;;21.37;63.72;101851.28;5074777;28;45382;-69
2021/08/13 03:25:45;;;;;;;;;8.75;7.50;;;;;21.33;64.59;101847.97;5075393;27;45400;-69
2021/08/13 03:28:10;;;;;;;;;5.75;4.25;;;;;21.31;64.11;101839.22;5075585;28;46220;-69
2021/08/13 03:30:40;;;;;;;;;7.00;7.00;;;;;21.32;63.98;101846.28;5074857;28;45514;-69
2021/08/13 03:33:08;;;;;;;;;6.50;6.50;;;;;21.33;64.16;101847.13;5073529;27;45513;-69
2021/08/13 03:35:34;;;;;;;;;6.00;6.00;;;;;21.31;64.27;101849.91;5075256;27;45706;-69
2021/08/13 03:37:59;;;;;;;;;8.00;7.00;;;;;21.26;64.45;101845.81;5074858;27;45438;-69
2021/08/13 03:40:24;;;;;;;;;9.00;7.00;;;;;21.25;64.19;101853.00;5074448;28;53406;-69
2021/08/13 03:42:51;;;;;;;;;9.50;7.25;;;;;21.21;64.16;101848.81;5074632;28;55193;-69
2021/08/13 03:45:16;;;;;;;;;10.25;7.00;;;;;21.20;64.22;101852.47;5074351;27;45485;-69
2021/08/13 03:47:41;;;;;;;;;6.00;6.00;;;;;21.17;64.84;101852.66;5075089;28;46280;-70
2021/08/13 03:50:07;;;;;;;;;6.50;5.25;;;;;21.17;64.27;101846.47;5074067;28;56522;-69
2021/08/13 03:52:32;;;;;;;;;7.50;6.75;;;;;21.15;64.34;101845.72;5075203;27;45420;-69
2021/08/13 03:54:57;;;;;;;;;7.75;5.50;;;;;21.08;64.41;101848.78;5074058;28;53609;-69
2021/08/13 03:57:23;;;;;;;;;11.25;8.00;;;;;21.06;64.53;101840.03;5074896;27;47906;-69
2021/08/13 03:59:48;;;;;;;;;4.50;4.50;;;;;21.01;64.46;101841.31;5072804;27;49455;-69
2021/08/13 04:02:13;;;;;;;;;9.50;6.25;;;;;21.04;64.72;101857.16;5074398;28;45353;-69
2021/08/13 04:04:39;;;;;;;;;6.25;5.00;;;;;21.02;64.50;101853.72;5074042;27;45343;-69
2021/08/13 04:07:04;;;;;;;;;6.00;6.00;;;;;20.99;64.32;101851.28;5076679;27;45472;-70
2021/08/13 04:09:29;;;;;;;;;5.25;5.25;;;;;20.95;64.43;101852.44;5074075;27;56825;-69
2021/08/13 04:11:55;;;;;;;;;9.00;5.75;;;;;20.88;64.98;101830.66;5072807;27;45497;-69
2021/08/13 04:14:20;;;;;;;;;8.00;6.00;;;;;20.88;64.71;101852.03;5074209;27;45591;-69
2021/08/13 04:16:45;;;;;;;;;8.00;6.00;;;;;20.85;65.37;101863.75;5074002;28;51815;-69
2021/08/13 04:19:10;;;;;;;;;9.50;7.00;;;;;20.85;65.28;101862.91;5075903;27;52957;-69
2021/08/13 04:21:36;;;;;;;;;8.25;5.00;;;;;20.82;64.69;101868.44;5074027;28;45273;-69
2021/08/13 04:24:01;;;;;;;;;6.75;5.50;;;;;20.82;65.17;101869.28;5074413;28;45604;-70
2021/08/13 04:26:27;;;;;;;;;8.50;7.50;;;;;20.79;65.24;101876.69;5073922;28;45542;-69
2021/08/13 04:28:52;;;;;;;;;11.00;6.75;;;;;20.75;65.34;101873.34;5073703;27;45700;-69
2021/08/13 04:31:17;;;;;;;;;6.25;5.25;;;;;20.77;65.15;101875.91;5075879;28;48365;-69
2021/08/13 04:33:43;;;;;;;;;8.00;6.25;;;;;20.75;65.46;101877.84;5072666;27;45548;-69
2021/08/13 04:36:08;;;;;;;;;10.75;8.75;;;;;20.72;64.98;101873.56;5073699;27;49747;-69
2021/08/13 04:38:33;;;;;;;;;9.25;7.50;;;;;20.69;65.33;101868.44;5072671;28;45324;-69
2021/08/13 04:40:59;;;;;;;;;6.00;5.00;;;;;20.67;65.48;101878.34;5074048;28;46406;-69
2021/08/13 04:43:24;;;;;;;;;7.50;6.25;;;;;20.65;65.34;101879.44;5074482;28;45453;-69
2021/08/13 04:45:49;;;;;;;;;10.75;7.50;;;;;20.60;65.25;101882.41;5074396;27;45408;-69
2021/08/13 04:48:15;;;;;;;;;12.25;8.50;;;;;20.57;65.52;101874.63;5074186;28;45527;-70
2021/08/13 04:50:40;;;;;;;;;10.25;7.50;;;;;20.49;65.89;101869.75;5072191;27;45342;-70
2021/08/13 04:53:05;;;;;;;;;6.25;6.25;;;;;20.52;65.80;101885.59;5073555;27;45491;-69
2021/08/13 04:55:31;;;;;;;;;7.25;6.50;;;;;20.48;65.70;101886.75;5074553;27;45513;-69
2021/08/13 04:57:56;;;;;;;;;11.00;7.25;;;;;20.49;66.05;101883.13;5074744;28;45508;-69
2021/08/13 05:00:23;;;;;;;;;10.75;6.00;;;;;20.46;66.22;101885.97;5073804;28;45548;-69
2021/08/13 05:02:48;;;;;;;;;8.00;7.00;;;;;20.43;66.04;101888.84;5073789;27;45468;-69
2021/08/13 05:05:13;;;;;;;;;5.75;5.25;;;;;20.43;66.77;101890.66;5068912;28;47643;-69
2021/08/13 05:07:39;;;;;;;;;12.75;7.25;;;;;20.44;66.95;101901.22;5072707;28;45980;-69
2021/08/13 05:10:12;;;;;;;;;8.50;7.25;;;;;20.45;66.71;101902.06;5075721;28;45413;-69
2021/08/13 05:12:38;;;;;;;;;8.75;7.00;;;;;20.43;67.02;101906.69;5071020;27;45520;-69
2021/08/13 05:15:05;;;;;;;;;9.50;7.50;;;;;20.46;66.77;101909.13;5073320;27;46615;-69
2021/08/13 05:17:31;;;;;;;;;9.50;8.50;;;;;20.47;66.63;101916.25;5073397;27;45603;-69
2021/08/13 05:19:56;;;;;;;;;9.50;7.00;;;;;20.49;66.77;101915.16;5073746;28;45534;-69
2021/08/13 05:22:22;;;;;;;;;6.00;6.00;;;;;20.52;67.19;101916.78;5074800;27;45349;-69
2021/08/13 05:24:47;;;;;;;;;7.50;5.50;;;;;20.53;67.13;101922.03;5073677;27;45823;-69
2021/08/13 05:27:12;;;;;;;;;13.25;8.50;;;;;20.56;67.20;101929.81;5072640;28;45303;-69
2021/08/13 05:29:38;;;;;;;;;9.00;7.00;;;;;20.62;66.74;101933.03;5071793;27;45389;-69
2021/08/13 05:32:03;;;;;;;;;7.50;5.00;;;;;20.65;66.94;101924.84;5073509;27;45546;-69
2021/08/13 05:34:29;;;;;;;;;6.50;5.00;;;;;20.73;66.29;101938.56;5073466;28;45360;-69
2021/08/13 05:36:54;;;;;;;;;6.75;5.00;;;;;20.74;65.89;101927.75;5073864;27;54469;-69
2021/08/13 05:39:19;;;;;;;;;7.00;6.00;;;;;20.85;66.44;101945.75;5073057;28;49548;-69
2021/08/13 05:41:45;;;;;;;;;5.75;5.00;;;;;20.90;66.11;101946.28;5072601;28;45279;-69
2021/08/13 05:44:10;;;;;;;;;7.50;6.50;;;;;20.96;65.92;101948.53;5072707;28;45566;-69
2021/08/13 05:46:35;;;;;;;;;7.75;5.50;;;;;20.98;66.10;101951.09;5073021;28;50574;-69
2021/08/13 05:49:00;;;;;;;;;7.25;5.00;;;;;21.02;66.00;101947.25;5074044;28;57402;-69
2021/08/13 05:51:26;;;;;;;;;5.25;5.00;;;;;21.08;65.87;101947.69;5090356;27;45554;-69
2021/08/13 05:53:52;;;;;;;;;5.00;5.00;;;;;21.10;65.04;101940.44;5072359;27;46342;-69
2021/08/13 05:56:17;;;;;;;;;5.00;3.00;;;;;21.13;64.55;101939.38;5072520;28;45427;-69
2021/08/13 05:58:42;;;;;;;;;5.75;5.00;;;;;21.19;65.27;101948.78;5071793;28;45549;-69
2021/08/13 06:01:08;;;;;;;;;8.50;5.25;;;;;21.21;64.45;101953.06;5075270;27;45433;-70
2021/08/13 06:03:33;;;;;;;;;6.75;4.00;;;;;21.28;64.97;101959.72;5071723;28;51871;-69
2021/08/13 06:05:58;;;;;;;;;6.50;6.00;;;;;21.40;65.00;101960.72;5068541;28;45572;-70
2021/08/13 06:08:24;;;;;;;;;5.50;5.00;;;;;21.60;64.93;101972.69;5071733;27;45643;-69
2021/08/13 06:10:49;;;;;;;;;4.25;4.25;;;;;21.91;64.39;101975.91;5072349;27;45784;-70
2021/08/13 06:13:16;;;;;;;;;5.25;4.75;;;;;22.04;63.34;101966.03;5074630;27;45429;-69
2021/08/13 06:15:41;;;;;;;;;7.00;5.00;;;;;22.10;63.01;101969.16;5072511;27;45460;-69
2021/08/13 06:18:07;;;;;;;;;6.00;5.00;;;;;22.14;63.08;101959.09;5072574;27;45390;-69
2021/08/13 06:20:32;;;;;;;;;4.50;4.50;;;;;22.23;63.18;101955.72;5072638;28;45391;-70
2021/08/13 06:22:57;;;;;;;;;7.00;4.25;;;;;22.33;62.17;101951.41;5073450;28;45541;-69
2021/08/13 06:25:23;;;;;;;;;6.00;4.50;;;;;22.48;62.22;101948.56;5077123;27;45362;-69
2021/08/13 06:27:48;;;;;;;;;4.00;4.00;;;;;22.52;61.69;101952.75;5076840;27;45460;-69
2021/08/13 06:30:18;;;;;;;;;3.25;3.25;;;;;22.54;62.10;101965.03;5074412;27;45467;-69
2021/08/13 06:32:44;;;;;;;;;4.75;4.75;;;;;22.54;61.88;101961.50;5075384;27;46045;-69
2021/08/13 06:35:10;;;;;;;;;4.75;4.75;;;;;22.55;61.51;101963.22;5076088;28;45365;-69
2021/08/13 06:37:49;;;;;;;;;4.25;2.75;;;;;22.58;61.77;101966.53;5076337;27;45357;-69
2021/08/13 06:40:15;;;;;;;;;4.00;3.00;;;;;22.61;61.24;101979.72;5077395;27;45498;-70
2021/08/13 06:42:41;;;;;;;;;2.25;2.25;;;;;22.70;61.14;101982.66;5075997;27;45755;-69
2021/08/13 06:45:12;;;;;;;;;5.50;4.75;;;;;22.73;61.19;101977.09;5075852;27;45555;-70
2021/08/13 06:47:37;;;;;;;;;3.50;3.50;;;;;22.79;61.05;101990.88;5075844;27;45318;-70
2021/08/13 06:50:04;;;;;;;;;5.00;5.00;;;;;22.89;60.46;101981.22;5075587;27;45588;-70
2021/08/13 06:52:29;;;;;;;;;5.25;4.75;;;;;22.99;60.21;101993.94;5076108;27;46017;-70
2021/08/13 06:54:55;;;;;;;;;7.25;6.00;;;;;23.06;60.59;101982.59;5077268;28;45417;-69
2021/08/13 06:57:20;;;;;;;;;5.00;5.00;;;;;23.19;60.45;101987.91;5075380;28;56925;-69
2021/08/13 06:59:45;;;;;;;;;10.00;7.00;;;;;23.27;59.87;101992.66;5075207;28;57282;-69
2021/08/13 07:02:11;;;;;;;;;5.75;4.50;;;;;23.31;59.57;101983.41;5075438;27;45409;-69
2021/08/13 07:04:36;;;;;;;;;8.50;5.75;;;;;23.40;59.61;101993.44;5075957;27;45759;-69
2021/08/13 07:07:01;;;;;;;;;6.00;5.00;;;;;23.43;58.79;101990.50;5074688;28;45501;-70
2021/08/13 07:09:27;;;;;;;;;6.75;6.75;;;;;23.42;58.81;101995.03;5074453;27;45600;-71
2021/08/13 07:11:52;;;;;;;;;5.50;4.50;;;;;23.46;59.23;101992.97;5071841;27;57241;-71
2021/08/13 07:14:17;;;;;;;;;5.00;5.00;;;;;23.50;58.81;101994.44;5074099;27;53626;-71
2021/08/13 07:16:42;;;;;;;;;7.25;5.00;;;;;23.53;58.16;102001.38;5075225;27;45357;-69
2021/08/13 07:19:08;;;;;;;;;3.25;3.25;;;;;23.61;57.73;102001.66;5076643;27;45451;-70
2021/08/13 07:21:33;;;;;;;;;4.75;4.75;;;;;23.69;58.20;102007.28;5072455;28;65408;-70
2021/08/13 07:23:58;;;;;;;;;5.75;4.00;;;;;23.79;57.44;102015.50;5074297;28;45487;-71
2021/08/13 07:26:24;;;;;;;;;4.75;4.75;;;;;23.86;57.40;102024.78;5075050;27;45345;-70
2021/08/13 07:28:49;;;;;;;;;5.00;3.25;;;;;23.92;56.63;102021.63;5075143;27;45581;-70
2021/08/13 07:31:15;;;;;;;;;4.00;4.00;;;;;24.02;57.16;102019.06;5076446;28;46383;-70
2021/08/13 07:33:40;;;;;;;;;2.50;2.50;;;;;24.10;56.42;102020.13;5074255;27;45440;-70
2021/08/13 07:36:06;;;;;;;;;2.75;2.75;;;;;24.16;56.90;102018.78;5073117;28;45614;-70
2021/08/13 07:38:35;;;;;;;;;3.00;3.00;;;;;24.25;56.77;102022.56;5074155;27;45470;-70
2021/08/13 07:41:00;;;;;;;;;3.00;3.00;;;;;24.33;56.23;102026.38;5073780;27;46477;-70
2021/08/13 07:43:26;;;;;;;;;5.25;3.00;;;;;24.39;56.00;102035.78;5075904;28;45543;-70
2021/08/13 07:45:51;;;;;;;;;3.00;3.00;;;;;24.46;56.01;102035.16;5075252;27;45781;-70
2021/08/13 07:48:16;;;;;;;;;3.00;2.00;;;;;24.64;55.70;102034.63;5072836;27;45488;-70
2021/08/13 07:50:42;;;;;;;;;3.50;2.25;;;;;24.79;55.81;102033.38;5072420;27;46403;-70
2021/08/13 07:53:07;;;;;;;;;3.00;3.00;;;;;24.94;55.69;102047.38;5074536;27;45296;-70
2021/08/13 07:55:32;;;;;;;;;5.00;4.00;;;;;25.06;55.08;102042.81;5074577;28;46502;-70
2021/08/13 07:57:58;;;;;;;;;2.00;2.00;;;;;25.16;55.13;102046.47;5073731;27;45738;-71
2021/08/13 08:00:23;;;;;;;;;3.50;2.25;;;;;25.32;54.65;102048.72;5071212;27;46507;-70
2021/08/13 08:02:48;;;;;;;;;2.00;2.00;;;;;25.45;53.84;102050.25;5073055;27;45545;-71
2021/08/13 08:05:14;;;;;;;;;4.75;2.75;;;;;25.56;54.08;102060.09;5072518;27;45592;-71
2021/08/13 08:07:40;;;;;;;;;4.25;4.00;;;;;25.68;53.62;102061.72;5074963;27;45406;-71
2021/08/13 08:10:05;;;;;;;;;2.00;2.00;;;;;25.85;53.82;102075.63;5074773;27;45533;-70
2021/08/13 08:12:31;;;;;;;;;4.25;3.50;;;;;25.92;52.91;102074.09;5069970;27;46135;-71
2021/08/13 08:14:56;;;;;;;;;3.50;2.75;;;;;25.99;53.46;102072.56;5065640;28;50012;-72
2021/08/13 08:17:21;;;;;;;;;3.00;2.25;;;;;26.10;52.65;102080.59;5074460;27;45417;-70
2021/08/13 08:19:46;;;;;;;;;3.75;2.50;;;;;26.22;52.80;102087.59;5074880;27;45442;-71
2021/08/13 08:22:12;;;;;;;;;3.75;3.75;;;;;26.39;53.39;102088.78;5078292;27;45345;-70
2021/08/13 08:24:37;;;;;;;;;5.75;4.00;;;;;26.51;52.42;102085.00;5075018;28;45288;-70
2021/08/13 08:27:03;;;;;;;;;5.00;3.00;;;;;26.69;52.90;102090.63;5072432;27;45681;-70
2021/08/13 08:29:28;;;;;;;;;2.25;2.00;;;;;26.80;51.92;102084.25;5074184;27;46554;-70
2021/08/13 08:31:54;;;;;;;;;4.25;3.50;;;;;26.96;52.27;102089.97;5074598;27;45620;-70
2021/08/13 08:34:19;;;;;;;;;3.25;3.25;;;;;27.18;51.24;102083.47;5075163;28;46662;-71
2021/08/13 08:36:44;;;;;;;;;4.00;3.00;;;;;27.45;51.07;102081.88;5073387;28;58427;-71
2021/08/13 08:39:10;;;;;;;;;5.50;3.00;;;;;27.78;50.55;102075.22;5073669;27;60862;-70
2021/08/13 08:41:36;;;;;;;;;4.00;3.00;;;;;28.09;49.87;102084.78;5077934;27;45541;-71
2021/08/13 08:44:02;;;;;;;;;3.50;3.50;;;;;28.20;49.40;102072.94;5073773;27;45529;-72
2021/08/13 08:46:28;;;;;;;;;3.00;2.00;;;;;28.42;49.61;102090.66;5072867;27;45441;-72
2021/08/13 08:48:55;;;;;;;;;2.75;2.75;;;;;28.57;48.64;102093.72;5072328;28;45610;-73
2021/08/13 08:51:21;;;;;;;;;3.00;3.00;;;;;28.73;48.84;102093.91;5070791;27;45759;-73
2021/08/13 08:53:52;;;;;;;;;4.00;4.00;;;;;28.94;48.06;102096.34;5073301;27;45312;-73
2021/08/13 08:56:22;;;;;;;;;2.75;2.75;;;;;29.20;48.55;102098.31;5072109;28;45462;-73
2021/08/13 08:58:48;;;;;;;;;4.50;4.25;;;;;29.43;48.12;102098.66;5073631;27;46216;-72
2021/08/13 09:01:17;;;;;;;;;3.75;3.75;;;;;29.66;47.25;102099.06;5074466;27;45950;-73
2021/08/13 09:03:45;;;;;;;;;6.00;3.00;;;;;29.85;47.33;102102.41;5072228;27;45349;-73
2021/08/13 09:06:11;;;;;;;;;2.50;2.50;;;;;30.01;46.81;102092.69;5073072;27;45702;-73
2021/08/13 09:08:37;;;;;;;;;7.00;3.75;;;;;30.26;45.86;102094.53;5071285;27;45439;-73
2021/08/13 09:11:04;;;;;;;;;4.00;4.00;;;;;30.48;45.45;102090.41;5073194;28;45441;-72
2021/08/13 09:13:29;;;;;;;;;6.25;3.00;;;;;30.75;45.33;102085.75;5073795;27;45298;-72
2021/08/13 09:15:56;;;;;;;;;6.00;5.00;;;;;31.05;44.94;102087.03;5073955;28;45394;-72
2021/08/13 09:18:23;;;;;;;;;4.50;4.50;;;;;31.42;43.98;102081.97;5072733;28;46580;-72
2021/08/13 09:20:56;;;;;;;;;4.50;3.75;;;;;31.82;42.91;102074.00;5072330;27;45602;-72
2021/08/13 09:23:33;;;;;;;;;3.00;3.00;;;;;32.22;42.47;102075.75;5072727;27;45487;-73
2021/08/13 09:26:06;;;;;;;;;3.00;2.50;;;;;32.63;42.48;102081.03;5072099;28;45536;-73
2021/08/13 09:28:41;;;;;;;;;2.50;2.50;;;;;33.39;41.37;102082.88;5073217;27;46573;-72
2021/08/13 09:31:22;;;;;;;;;7.00;4.00;;;;;34.45;40.79;102092.72;5073063;28;45425;-72
2021/08/13 09:33:53;;;;;;;;;4.50;3.25;;;;;35.29;40.66;102094.91;5071364;28;45483;-73
2021/08/13 09:36:21;;;;;;;;;3.00;3.00;;;;;35.78;38.64;102094.09;5072260;27;45483;-73
2021/08/13 09:38:48;;;;;;;;;2.25;2.25;;;;;36.29;37.94;102094.66;5071128;28;47330;-73
2021/08/13 09:41:17;;;;;;;;;3.00;2.00;;;;;36.83;37.00;102095.69;5072914;27;45575;-73
2021/08/13 09:43:58;;;;;;;;;3.25;2.75;;;;;37.32;36.57;102102.75;5072447;27;45456;-72
2021/08/13 09:46:24;;;;;;;;;3.25;3.25;;;;;37.68;35.73;102102.34;5070422;28;46984;-77
2021/08/13 09:48:50;;;;;;;;;3.50;2.50;;;;;37.82;34.61;102095.81;5072866;27;48407;-75
2021/08/13 09:51:34;;;;;;;;;23.25;20.75;;;;;37.93;34.22;102080.59;5073104;28;45617;-77
2021/08/13 09:54:02;;;;;;;;;13.25;8.50;;;;;38.22;34.13;102076.50;5071098;27;45260;-75
2021/08/13 09:56:32;;;;;;;;;3.00;3.00;;;;;38.63;34.43;102081.63;5072757;27;45528;-76
2021/08/13 09:59:07;;;;;;;;;2.25;2.25;;;;;38.96;33.73;102082.50;5076096;27;46184;-73
2021/08/13 10:01:46;;;;;;;;;2.75;2.75;;;;;39.16;33.67;102083.22;5077218;27;45298;-73
2021/08/13 10:04:13;;;;;;;;;3.00;3.00;;;;;39.25;33.49;102078.28;5093324;27;45456;-74
2021/08/13 10:06:40;;;;;;;;;4.00;3.00;;;;;39.57;33.02;102082.66;5075965;27;45615;-75
2021/08/13 10:09:19;;;;;;;;;2.50;2.50;;;;;40.04;32.46;102079.44;5076392;27;45380;-72
2021/08/13 10:11:57;;;;;;;;;3.00;3.00;;;;;40.43;31.05;102070.69;5076514;27;45385;-72
2021/08/13 10:14:36;;;;;;;;;4.50;4.50;;;;;40.88;30.73;102077.75;5076075;27;45545;-74
2021/08/13 10:17:16;;;;;;;;;2.50;2.25;;;;;41.28;29.92;102083.47;5061755;28;45669;-71
2021/08/13 10:19:49;;;;;;;;;2.00;2.00;;;;;41.29;29.42;102076.84;5076372;27;45587;-71
2021/08/13 10:22:17;;;;;;;;;2.00;2.00;;;;;40.78;30.01;102082.97;5076285;27;45427;-72
2021/08/13 10:24:44;;;;;;;;;4.00;4.00;;;;;40.21;30.12;102085.22;5076743;27;45327;-73
2021/08/13 10:27:10;;;;;;;;;5.00;5.00;;;;;39.54;29.56;102071.25;5076294;28;46318;-72
2021/08/13 10:29:35;;;;;;;;;4.25;4.25;;;;;38.85;30.36;102079.41;5075416;27;45541;-71
2021/08/13 10:32:01;;;;;;;;;4.50;4.00;;;;;38.20;30.35;102066.78;5075878;27;45452;-72
2021/08/13 10:34:26;;;;;;;;;6.25;6.00;;;;;37.60;30.79;102073.25;5075905;27;45339;-73
2021/08/13 10:36:53;;;;;;;;;4.00;4.00;;;;;37.22;31.69;102074.91;5076188;27;45424;-72
2021/08/13 10:39:20;;;;;;;;;1.75;1.75;;;;;36.99;32.77;102073.41;5075614;27;46724;-74
2021/08/13 10:41:52;;;;;;;;;4.00;4.00;;;;;36.81;31.73;102073.16;5076093;27;45596;-72
2021/08/13 10:44:21;;;;;;;;;7.00;6.50;;;;;36.58;32.15;102068.88;5075237;27;45517;-73
2021/08/13 10:46:49;;;;;;;;;5.00;5.00;;;;;36.36;31.99;102064.56;5075600;27;45612;-73
2021/08/13 10:49:18;;;;;;;;;6.75;5.25;;;;;36.21;32.66;102066.59;5076124;27;46310;-72
2021/08/13 10:51:43;;;;;;;;;4.00;4.00;;;;;35.98;32.35;102066.91;5075198;27;45998;-72
2021/08/13 10:54:14;;;;;;;;;6.50;4.25;;;;;35.91;33.54;102065.97;5076078;27;45347;-72
2021/08/13 10:56:44;;;;;;;;;7.75;7.00;;;;;35.94;33.69;102063.72;5071459;28;45574;-72
2021/08/13 10:59:10;;;;;;;;;6.25;3.50;;;;;35.89;33.72;102057.97;5074956;27;46423;-73
2021/08/13 11:01:36;;;;;;;;;5.75;5.00;;;;;35.85;33.90;102066.78;5076005;27;45394;-72
2021/08/13 11:04:01;;;;;;;;;6.50;4.50;;;;;35.84;33.59;102073.31;5075222;28;45736;-72
2021/08/13 11:06:36;;;;;;;;;4.67;4.00;;;;;35.67;33.74;102076.34;5074757;27;45402;-71
2021/08/13 11:09:02;;;;;;;;;9.00;8.00;;;;;35.36;33.21;102065.78;5074630;28;46548;-73
2021/08/13 11:12:05;;;;;;;;;9.25;7.00;;;;;35.20;34.59;102066.91;5075226;27;45329;-73
2021/08/13 11:14:34;;;;;;;;;9.25;7.50;;;;;35.13;34.74;102070.59;5075525;27;45552;-72
2021/08/13 11:17:02;;;;;;;;;8.25;6.75;;;;;35.12;34.61;102069.75;5075153;27;45476;-72
2021/08/13 11:19:28;;;;;;;;;7.50;6.00;;;;;35.10;34.53;102063.66;5092073;27;47919;-72
2021/08/13 11:21:58;;;;;;;;;9.25;6.00;;;;;35.09;34.82;102058.41;5075667;27;45288;-72
2021/08/13 11:24:51;;;;;;;;;6.75;6.50;;;;;35.14;35.41;102058.66;5075755;28;45366;-73